sensor_id;sensor_type;location;lat;lon;timestamp;P1;durP1;ratioP1;P2;durP2;ratioP2
8526;SDS011;4301;48.362;8.478;2022-08-05T00:00:06;4.60;;;3.13;;
8526;SDS011;4301;48.362;8.478;2022-08-05T00:02:36;3.57;;;3.00;;
8526;SDS011;4301;48.362;8.478;2022-08-05T00:05:05;3.13;;;2.93;;
8526;SDS011;4301;48.362;8.478;2022-08-05T00:07:32;3.40;;;3.20;;
8526;SDS011;4301;48.362;8.478;2022-08-05T00:09:59;3.97;;;3.27;;
8526;SDS011;4301;48.362;8.478;2022-08-05T00:12:26;3.57;;;3.20;;
8526;SDS011;4301;48.362;8.478;2022-08-05T00:14:53;3.23;;;3.00;;
8526;SDS011;4301;48.362;8.478;2022-08-05T00:17:21;4.30;;;3.30;;
8526;SDS011;4301;48.362;8.478;2022-08-05T00:19:48;5.03;;;3.57;;
8526;SDS011;4301;48.362;8.478;2022-08-05T00:22:16;4.77;;;3.60;;
8526;SDS011;4301;48.362;8.478;2022-08-05T00:24:43;4.23;;;3.27;;
8526;SDS011;4301;48.362;8.478;2022-08-05T00:27:10;3.40;;;3.20;;
8526;SDS011;4301;48.362;8.478;2022-08-05T00:29:37;3.57;;;3.20;;
8526;SDS011;4301;48.362;8.478;2022-08-05T00:32:04;3.97;;;3.50;;
8526;SDS011;4301;48.362;8.478;2022-08-05T00:34:33;5.00;;;3.37;;
8526;SDS011;4301;48.362;8.478;2022-08-05T00:37:00;5.23;;;3.17;;
8526;SDS011;4301;48.362;8.478;2022-08-05T00:39:28;3.53;;;3.23;;
8526;SDS011;4301;48.362;8.478;2022-08-05T00:41:55;4.33;;;3.40;;
8526;SDS011;4301;48.362;8.478;2022-08-05T00:44:22;4.80;;;3.40;;
8526;SDS011;4301;48.362;8.478;2022-08-05T00:46:49;4.70;;;3.33;;
8526;SDS011;4301;48.362;8.478;2022-08-05T00:49:16;3.40;;;3.20;;
8526;SDS011;4301;48.362;8.478;2022-08-05T00:51:44;3.40;;;3.10;;
8526;SDS011;4301;48.362;8.478;2022-08-05T00:54:11;3.47;;;3.17;;
8526;SDS011;4301;48.362;8.478;2022-08-05T00:56:39;3.50;;;3.20;;
8526;SDS011;4301;48.362;8.478;2022-08-05T00:59:06;3.97;;;3.30;;
8526;SDS011;4301;48.362;8.478;2022-08-05T01:01:34;3.40;;;3.20;;
8526;SDS011;4301;48.362;8.478;2022-08-05T01:04:01;3.67;;;3.47;;
8526;SDS011;4301;48.362;8.478;2022-08-05T01:06:29;3.13;;;2.93;;
8526;SDS011;4301;48.362;8.478;2022-08-05T01:08:56;3.33;;;3.13;;
8526;SDS011;4301;48.362;8.478;2022-08-05T01:11:26;3.60;;;3.30;;
8526;SDS011;4301;48.362;8.478;2022-08-05T01:13:59;3.37;;;3.17;;
8526;SDS011;4301;48.362;8.478;2022-08-05T01:16:33;3.20;;;3.00;;
8526;SDS011;4301;48.362;8.478;2022-08-05T01:19:18;3.63;;;3.10;;
8526;SDS011;4301;48.362;8.478;2022-08-05T01:22:05;3.43;;;3.17;;
8526;SDS011;4301;48.362;8.478;2022-08-05T01:30:35;3.60;;;3.40;;
8526;SDS011;4301;48.362;8.478;2022-08-05T01:33:05;3.97;;;3.10;;
8526;SDS011;4301;48.362;8.478;2022-08-05T01:35:36;3.40;;;3.07;;
8526;SDS011;4301;48.362;8.478;2022-08-05T01:38:06;4.43;;;3.30;;
8526;SDS011;4301;48.362;8.478;2022-08-05T01:40:34;3.43;;;3.23;;
8526;SDS011;4301;48.362;8.478;2022-08-05T01:43:04;3.87;;;2.93;;
8526;SDS011;4301;48.362;8.478;2022-08-05T01:45:34;3.23;;;2.97;;
8526;SDS011;4301;48.362;8.478;2022-08-05T01:48:04;3.57;;;2.90;;
8526;SDS011;4301;48.362;8.478;2022-08-05T01:50:35;3.43;;;3.10;;
8526;SDS011;4301;48.362;8.478;2022-08-05T01:53:05;3.10;;;2.80;;
8526;SDS011;4301;48.362;8.478;2022-08-05T01:55:37;3.30;;;3.00;;
8526;SDS011;4301;48.362;8.478;2022-08-05T01:58:07;3.30;;;3.10;;
8526;SDS011;4301;48.362;8.478;2022-08-05T02:00:37;3.60;;;3.20;;
8526;SDS011;4301;48.362;8.478;2022-08-05T02:03:09;4.40;;;3.20;;
8526;SDS011;4301;48.362;8.478;2022-08-05T02:05:40;3.30;;;3.10;;
8526;SDS011;4301;48.362;8.478;2022-08-05T02:08:10;3.50;;;3.20;;
8526;SDS011;4301;48.362;8.478;2022-08-05T02:10:38;2.97;;;2.87;;
8526;SDS011;4301;48.362;8.478;2022-08-05T02:13:11;3.10;;;2.90;;
8526;SDS011;4301;48.362;8.478;2022-08-05T02:15:42;3.03;;;2.83;;
8526;SDS011;4301;48.362;8.478;2022-08-05T02:18:13;3.67;;;3.37;;
8526;SDS011;4301;48.362;8.478;2022-08-05T02:20:48;3.43;;;3.13;;
8526;SDS011;4301;48.362;8.478;2022-08-05T02:23:19;3.43;;;3.23;;
8526;SDS011;4301;48.362;8.478;2022-08-05T02:25:50;3.83;;;3.53;;
8526;SDS011;4301;48.362;8.478;2022-08-05T02:28:22;3.47;;;3.23;;
8526;SDS011;4301;48.362;8.478;2022-08-05T02:30:55;3.23;;;3.03;;
8526;SDS011;4301;48.362;8.478;2022-08-05T02:33:25;3.73;;;3.37;;
8526;SDS011;4301;48.362;8.478;2022-08-05T02:35:52;3.60;;;3.30;;
8526;SDS011;4301;48.362;8.478;2022-08-05T02:38:23;3.73;;;3.10;;
8526;SDS011;4301;48.362;8.478;2022-08-05T02:40:51;3.30;;;3.10;;
8526;SDS011;4301;48.362;8.478;2022-08-05T02:43:21;3.27;;;3.07;;
8526;SDS011;4301;48.362;8.478;2022-08-05T02:45:50;3.37;;;3.17;;
8526;SDS011;4301;48.362;8.478;2022-08-05T02:48:17;3.77;;;3.50;;
8526;SDS011;4301;48.362;8.478;2022-08-05T02:50:46;3.70;;;3.40;;
8526;SDS011;4301;48.362;8.478;2022-08-05T02:53:15;3.60;;;3.40;;
8526;SDS011;4301;48.362;8.478;2022-08-05T02:55:45;3.17;;;2.87;;
8526;SDS011;4301;48.362;8.478;2022-08-05T02:58:13;3.63;;;3.40;;
8526;SDS011;4301;48.362;8.478;2022-08-05T03:00:43;4.00;;;3.70;;
8526;SDS011;4301;48.362;8.478;2022-08-05T03:03:11;3.87;;;3.37;;
8526;SDS011;4301;48.362;8.478;2022-08-05T03:05:40;3.73;;;3.27;;
8526;SDS011;4301;48.362;8.478;2022-08-05T03:08:08;3.10;;;2.90;;
8526;SDS011;4301;48.362;8.478;2022-08-05T03:10:36;3.33;;;3.10;;
8526;SDS011;4301;48.362;8.478;2022-08-05T03:13:10;3.13;;;2.93;;
8526;SDS011;4301;48.362;8.478;2022-08-05T03:15:37;3.30;;;3.10;;
8526;SDS011;4301;48.362;8.478;2022-08-05T03:18:08;3.67;;;3.27;;
8526;SDS011;4301;48.362;8.478;2022-08-05T03:20:35;3.23;;;3.00;;
8526;SDS011;4301;48.362;8.478;2022-08-05T03:23:03;3.40;;;3.10;;
8526;SDS011;4301;48.362;8.478;2022-08-05T03:25:32;3.27;;;2.93;;
8526;SDS011;4301;48.362;8.478;2022-08-05T03:27:59;3.90;;;3.30;;
8526;SDS011;4301;48.362;8.478;2022-08-05T03:30:28;4.80;;;3.27;;
8526;SDS011;4301;48.362;8.478;2022-08-05T03:32:57;3.83;;;3.20;;
8526;SDS011;4301;48.362;8.478;2022-08-05T03:35:26;3.97;;;3.10;;
8526;SDS011;4301;48.362;8.478;2022-08-05T03:37:55;3.20;;;3.00;;
8526;SDS011;4301;48.362;8.478;2022-08-05T03:40:22;3.33;;;3.13;;
8526;SDS011;4301;48.362;8.478;2022-08-05T03:42:50;3.20;;;3.00;;
8526;SDS011;4301;48.362;8.478;2022-08-05T03:45:16;3.30;;;3.10;;
8526;SDS011;4301;48.362;8.478;2022-08-05T03:47:43;3.30;;;3.10;;
8526;SDS011;4301;48.362;8.478;2022-08-05T03:50:10;3.97;;;3.67;;
8526;SDS011;4301;48.362;8.478;2022-08-05T03:52:41;3.83;;;3.23;;
8526;SDS011;4301;48.362;8.478;2022-08-05T03:55:16;3.43;;;3.13;;
8526;SDS011;4301;48.362;8.478;2022-08-05T03:57:47;3.40;;;3.20;;
8526;SDS011;4301;48.362;8.478;2022-08-05T04:00:17;5.00;;;4.60;;
8526;SDS011;4301;48.362;8.478;2022-08-05T04:02:50;4.30;;;3.50;;
8526;SDS011;4301;48.362;8.478;2022-08-05T04:05:20;3.40;;;3.20;;
8526;SDS011;4301;48.362;8.478;2022-08-05T04:07:49;3.33;;;3.13;;
8526;SDS011;4301;48.362;8.478;2022-08-05T04:10:17;5.30;;;3.37;;
8526;SDS011;4301;48.362;8.478;2022-08-05T04:12:44;3.37;;;3.10;;
8526;SDS011;4301;48.362;8.478;2022-08-05T04:15:12;3.30;;;3.10;;
8526;SDS011;4301;48.362;8.478;2022-08-05T04:17:39;3.27;;;3.07;;
8526;SDS011;4301;48.362;8.478;2022-08-05T04:20:15;4.93;;;2.93;;
8526;SDS011;4301;48.362;8.478;2022-08-05T04:22:44;3.30;;;3.10;;
8526;SDS011;4301;48.362;8.478;2022-08-05T04:25:12;3.37;;;3.07;;
8526;SDS011;4301;48.362;8.478;2022-08-05T04:27:39;3.43;;;3.23;;
8526;SDS011;4301;48.362;8.478;2022-08-05T04:30:07;3.10;;;2.90;;
8526;SDS011;4301;48.362;8.478;2022-08-05T04:32:34;4.23;;;3.53;;
8526;SDS011;4301;48.362;8.478;2022-08-05T04:35:02;3.93;;;3.63;;
8526;SDS011;4301;48.362;8.478;2022-08-05T04:37:29;4.00;;;3.10;;
8526;SDS011;4301;48.362;8.478;2022-08-05T04:39:57;6.70;;;3.50;;
8526;SDS011;4301;48.362;8.478;2022-08-05T04:42:25;3.43;;;3.23;;
8526;SDS011;4301;48.362;8.478;2022-08-05T04:44:52;4.33;;;3.40;;
8526;SDS011;4301;48.362;8.478;2022-08-05T04:47:19;3.40;;;3.10;;
8526;SDS011;4301;48.362;8.478;2022-08-05T04:49:46;3.40;;;3.10;;
8526;SDS011;4301;48.362;8.478;2022-08-05T04:52:13;3.73;;;3.23;;
8526;SDS011;4301;48.362;8.478;2022-08-05T04:54:40;3.60;;;3.40;;
8526;SDS011;4301;48.362;8.478;2022-08-05T04:57:07;5.03;;;3.53;;
8526;SDS011;4301;48.362;8.478;2022-08-05T04:59:36;5.47;;;3.03;;
8526;SDS011;4301;48.362;8.478;2022-08-05T05:02:02;3.50;;;3.20;;
8526;SDS011;4301;48.362;8.478;2022-08-05T05:04:30;3.30;;;3.10;;
8526;SDS011;4301;48.362;8.478;2022-08-05T05:06:56;3.30;;;3.10;;
8526;SDS011;4301;48.362;8.478;2022-08-05T05:09:23;7.10;;;3.50;;
8526;SDS011;4301;48.362;8.478;2022-08-05T05:11:50;3.63;;;3.33;;
8526;SDS011;4301;48.362;8.478;2022-08-05T05:14:17;4.50;;;3.53;;
8526;SDS011;4301;48.362;8.478;2022-08-05T05:16:46;3.90;;;3.60;;
8526;SDS011;4301;48.362;8.478;2022-08-05T05:19:13;3.97;;;3.67;;
8526;SDS011;4301;48.362;8.478;2022-08-05T05:21:40;3.67;;;3.23;;
8526;SDS011;4301;48.362;8.478;2022-08-05T05:24:07;4.67;;;3.60;;
8526;SDS011;4301;48.362;8.478;2022-08-05T05:26:34;3.77;;;3.10;;
8526;SDS011;4301;48.362;8.478;2022-08-05T05:29:01;3.60;;;3.00;;
8526;SDS011;4301;48.362;8.478;2022-08-05T05:31:28;3.65;;;3.35;;
8526;SDS011;4301;48.362;8.478;2022-08-05T05:33:57;3.70;;;3.40;;
8526;SDS011;4301;48.362;8.478;2022-08-05T05:36:24;3.33;;;2.97;;
8526;SDS011;4301;48.362;8.478;2022-08-05T05:38:51;4.83;;;3.60;;
8526;SDS011;4301;48.362;8.478;2022-08-05T05:41:18;3.80;;;3.50;;
8526;SDS011;4301;48.362;8.478;2022-08-05T05:43:45;3.80;;;3.00;;
8526;SDS011;4301;48.362;8.478;2022-08-05T05:46:12;3.40;;;3.20;;
8526;SDS011;4301;48.362;8.478;2022-08-05T05:48:39;3.50;;;3.23;;
8526;SDS011;4301;48.362;8.478;2022-08-05T05:51:09;3.80;;;3.40;;
8526;SDS011;4301;48.362;8.478;2022-08-05T05:53:36;3.40;;;3.20;;
8526;SDS011;4301;48.362;8.478;2022-08-05T05:56:03;3.80;;;3.50;;
8526;SDS011;4301;48.362;8.478;2022-08-05T05:58:30;4.77;;;3.40;;
8526;SDS011;4301;48.362;8.478;2022-08-05T06:00:57;6.73;;;3.33;;
8526;SDS011;4301;48.362;8.478;2022-08-05T06:03:24;5.33;;;3.50;;
8526;SDS011;4301;48.362;8.478;2022-08-05T06:05:51;4.00;;;3.63;;
8526;SDS011;4301;48.362;8.478;2022-08-05T06:08:19;4.70;;;3.53;;
8526;SDS011;4301;48.362;8.478;2022-08-05T06:10:46;5.57;;;3.60;;
8526;SDS011;4301;48.362;8.478;2022-08-05T06:13:13;3.60;;;3.30;;
8526;SDS011;4301;48.362;8.478;2022-08-05T06:15:40;3.80;;;3.23;;
8526;SDS011;4301;48.362;8.478;2022-08-05T06:18:07;5.00;;;3.30;;
8526;SDS011;4301;48.362;8.478;2022-08-05T06:20:34;3.50;;;3.20;;
8526;SDS011;4301;48.362;8.478;2022-08-05T06:23:01;3.20;;;2.90;;
8526;SDS011;4301;48.362;8.478;2022-08-05T06:25:31;5.22;;;3.00;;
8526;SDS011;4301;48.362;8.478;2022-08-05T06:27:58;2.50;;;2.40;;
8526;SDS011;4301;48.362;8.478;2022-08-05T06:30:25;3.42;;;2.78;;
8526;SDS011;4301;48.362;8.478;2022-08-05T06:32:52;3.20;;;2.40;;
8526;SDS011;4301;48.362;8.478;2022-08-05T06:35:19;5.18;;;2.40;;
8526;SDS011;4301;48.362;8.478;2022-08-05T06:37:46;2.55;;;2.35;;
8526;SDS011;4301;48.362;8.478;2022-08-05T06:40:13;2.50;;;2.40;;
8526;SDS011;4301;48.362;8.478;2022-08-05T06:42:41;5.45;;;2.10;;
8526;SDS011;4301;48.362;8.478;2022-08-05T06:45:08;2.50;;;2.30;;
8526;SDS011;4301;48.362;8.478;2022-08-05T06:47:36;4.43;;;2.20;;
8526;SDS011;4301;48.362;8.478;2022-08-05T06:50:03;2.03;;;1.92;;
8526;SDS011;4301;48.362;8.478;2022-08-05T06:52:30;4.25;;;2.25;;
8526;SDS011;4301;48.362;8.478;2022-08-05T06:54:57;2.13;;;1.98;;
8526;SDS011;4301;48.362;8.478;2022-08-05T06:57:24;2.47;;;2.10;;
8526;SDS011;4301;48.362;8.478;2022-08-05T06:59:53;2.20;;;2.10;;
8526;SDS011;4301;48.362;8.478;2022-08-05T07:02:20;2.92;;;2.17;;
8526;SDS011;4301;48.362;8.478;2022-08-05T07:04:47;4.10;;;2.10;;
8526;SDS011;4301;48.362;8.478;2022-08-05T07:07:14;2.20;;;2.08;;
8526;SDS011;4301;48.362;8.478;2022-08-05T07:09:42;2.38;;;2.25;;
8526;SDS011;4301;48.362;8.478;2022-08-05T07:12:09;4.55;;;2.33;;
8526;SDS011;4301;48.362;8.478;2022-08-05T07:14:58;3.20;;;2.45;;
8526;SDS011;4301;48.362;8.478;2022-08-05T07:17:42;3.13;;;2.20;;
8526;SDS011;4301;48.362;8.478;2022-08-05T07:20:09;2.50;;;2.30;;
8526;SDS011;4301;48.362;8.478;2022-08-05T07:22:36;2.50;;;2.30;;
8526;SDS011;4301;48.362;8.478;2022-08-05T07:25:04;4.75;;;2.10;;
8526;SDS011;4301;48.362;8.478;2022-08-05T07:27:32;2.47;;;2.20;;
8526;SDS011;4301;48.362;8.478;2022-08-05T07:30:00;2.33;;;2.13;;
8526;SDS011;4301;48.362;8.478;2022-08-05T07:32:27;2.38;;;2.28;;
8526;SDS011;4301;48.362;8.478;2022-08-05T07:34:54;2.97;;;2.05;;
8526;SDS011;4301;48.362;8.478;2022-08-05T07:37:21;2.10;;;2.00;;
8526;SDS011;4301;48.362;8.478;2022-08-05T07:39:48;2.00;;;1.90;;
8526;SDS011;4301;48.362;8.478;2022-08-05T07:42:15;2.10;;;1.90;;
8526;SDS011;4301;48.362;8.478;2022-08-05T07:44:42;1.88;;;1.77;;
8526;SDS011;4301;48.362;8.478;2022-08-05T07:47:11;2.22;;;2.00;;
8526;SDS011;4301;48.362;8.478;2022-08-05T07:49:38;3.63;;;2.10;;
8526;SDS011;4301;48.362;8.478;2022-08-05T07:52:05;1.90;;;1.80;;
8526;SDS011;4301;48.362;8.478;2022-08-05T07:54:32;2.03;;;1.92;;
8526;SDS011;4301;48.362;8.478;2022-08-05T07:56:59;3.15;;;1.65;;
8526;SDS011;4301;48.362;8.478;2022-08-05T07:59:26;2.25;;;1.85;;
8526;SDS011;4301;48.362;8.478;2022-08-05T08:01:53;2.00;;;1.90;;
8526;SDS011;4301;48.362;8.478;2022-08-05T08:04:21;2.15;;;2.05;;
8526;SDS011;4301;48.362;8.478;2022-08-05T08:06:48;1.80;;;1.70;;
8526;SDS011;4301;48.362;8.478;2022-08-05T08:09:15;2.00;;;1.90;;
8526;SDS011;4301;48.362;8.478;2022-08-05T08:11:43;1.70;;;1.70;;
8526;SDS011;4301;48.362;8.478;2022-08-05T08:14:10;1.63;;;1.63;;
8526;SDS011;4301;48.362;8.478;2022-08-05T08:16:37;1.67;;;1.65;;
8526;SDS011;4301;48.362;8.478;2022-08-05T08:19:04;1.70;;;1.60;;
8526;SDS011;4301;48.362;8.478;2022-08-05T08:21:33;1.85;;;1.75;;
8526;SDS011;4301;48.362;8.478;2022-08-05T08:24:00;1.52;;;1.52;;
8526;SDS011;4301;48.362;8.478;2022-08-05T08:26:28;1.83;;;1.73;;
8526;SDS011;4301;48.362;8.478;2022-08-05T08:28:54;2.15;;;1.95;;
8526;SDS011;4301;48.362;8.478;2022-08-05T08:31:22;5.00;;;2.00;;
8526;SDS011;4301;48.362;8.478;2022-08-05T08:33:49;2.13;;;2.03;;
8526;SDS011;4301;48.362;8.478;2022-08-05T08:36:16;1.90;;;1.80;;
8526;SDS011;4301;48.362;8.478;2022-08-05T08:38:44;2.00;;;1.90;;
8526;SDS011;4301;48.362;8.478;2022-08-05T08:41:11;1.70;;;1.60;;
8526;SDS011;4301;48.362;8.478;2022-08-05T08:43:41;2.10;;;1.90;;
8526;SDS011;4301;48.362;8.478;2022-08-05T08:46:10;1.70;;;1.60;;
8526;SDS011;4301;48.362;8.478;2022-08-05T08:48:37;2.38;;;1.80;;
8526;SDS011;4301;48.362;8.478;2022-08-05T08:51:09;1.85;;;1.75;;
8526;SDS011;4301;48.362;8.478;2022-08-05T08:53:36;2.00;;;1.90;;
8526;SDS011;4301;48.362;8.478;2022-08-05T08:56:06;2.08;;;1.90;;
8526;SDS011;4301;48.362;8.478;2022-08-05T08:58:33;2.13;;;1.92;;
8526;SDS011;4301;48.362;8.478;2022-08-05T09:01:01;1.95;;;1.85;;
8526;SDS011;4301;48.362;8.478;2022-08-05T09:03:28;2.13;;;2.03;;
8526;SDS011;4301;48.362;8.478;2022-08-05T09:05:55;3.67;;;1.90;;
8526;SDS011;4301;48.362;8.478;2022-08-05T09:08:23;2.00;;;1.90;;
8526;SDS011;4301;48.362;8.478;2022-08-05T09:10:50;2.58;;;1.90;;
8526;SDS011;4301;48.362;8.478;2022-08-05T09:13:19;2.13;;;2.03;;
8526;SDS011;4301;48.362;8.478;2022-08-05T09:15:46;2.10;;;1.90;;
8526;SDS011;4301;48.362;8.478;2022-08-05T09:18:13;3.22;;;2.10;;
8526;SDS011;4301;48.362;8.478;2022-08-05T09:20:40;2.10;;;2.00;;
8526;SDS011;4301;48.362;8.478;2022-08-05T09:23:10;2.05;;;1.95;;
8526;SDS011;4301;48.362;8.478;2022-08-05T09:25:39;1.95;;;1.85;;
8526;SDS011;4301;48.362;8.478;2022-08-05T09:28:11;3.13;;;2.10;;
8526;SDS011;4301;48.362;8.478;2022-08-05T09:30:45;2.00;;;1.90;;
8526;SDS011;4301;48.362;8.478;2022-08-05T09:33:20;2.22;;;2.10;;
8526;SDS011;4301;48.362;8.478;2022-08-05T09:35:57;3.97;;;2.10;;
8526;SDS011;4301;48.362;8.478;2022-08-05T09:38:25;2.28;;;2.17;;
8526;SDS011;4301;48.362;8.478;2022-08-05T09:40:53;1.95;;;1.85;;
8526;SDS011;4301;48.362;8.478;2022-08-05T09:43:28;2.00;;;1.90;;
8526;SDS011;4301;48.362;8.478;2022-08-05T09:45:58;3.05;;;2.30;;
8526;SDS011;4301;48.362;8.478;2022-08-05T09:48:26;2.10;;;2.00;;
8526;SDS011;4301;48.362;8.478;2022-08-05T09:50:55;2.00;;;1.90;;
8526;SDS011;4301;48.362;8.478;2022-08-05T09:53:23;2.15;;;1.98;;
8526;SDS011;4301;48.362;8.478;2022-08-05T09:55:52;1.83;;;1.73;;
8526;SDS011;4301;48.362;8.478;2022-08-05T09:58:21;2.17;;;2.00;;
8526;SDS011;4301;48.362;8.478;2022-08-05T10:00:52;1.98;;;1.88;;
8526;SDS011;4301;48.362;8.478;2022-08-05T10:03:21;2.08;;;1.92;;
8526;SDS011;4301;48.362;8.478;2022-08-05T10:06:03;2.60;;;1.90;;
8526;SDS011;4301;48.362;8.478;2022-08-05T10:08:31;2.10;;;2.00;;
8526;SDS011;4301;48.362;8.478;2022-08-05T10:10:58;4.45;;;1.95;;
8526;SDS011;4301;48.362;8.478;2022-08-05T10:13:29;2.53;;;2.33;;
8526;SDS011;4301;48.362;8.478;2022-08-05T10:15:57;3.25;;;2.10;;
8526;SDS011;4301;48.362;8.478;2022-08-05T10:18:26;2.13;;;2.03;;
8526;SDS011;4301;48.362;8.478;2022-08-05T10:20:57;2.88;;;2.03;;
8526;SDS011;4301;48.362;8.478;2022-08-05T10:23:26;2.15;;;2.00;;
8526;SDS011;4301;48.362;8.478;2022-08-05T10:25:54;3.03;;;2.30;;
8526;SDS011;4301;48.362;8.478;2022-08-05T10:28:22;2.10;;;1.90;;
8526;SDS011;4301;48.362;8.478;2022-08-05T10:30:50;2.22;;;2.08;;
8526;SDS011;4301;48.362;8.478;2022-08-05T10:33:17;2.42;;;2.22;;
8526;SDS011;4301;48.362;8.478;2022-08-05T10:35:46;2.20;;;2.00;;
8526;SDS011;4301;48.362;8.478;2022-08-05T10:38:13;2.53;;;2.10;;
8526;SDS011;4301;48.362;8.478;2022-08-05T10:40:43;2.10;;;2.00;;
8526;SDS011;4301;48.362;8.478;2022-08-05T10:43:24;2.03;;;1.92;;
8526;SDS011;4301;48.362;8.478;2022-08-05T10:45:58;2.17;;;1.90;;
8526;SDS011;4301;48.362;8.478;2022-08-05T10:48:28;2.35;;;2.22;;
8526;SDS011;4301;48.362;8.478;2022-08-05T10:51:01;2.30;;;2.10;;
8526;SDS011;4301;48.362;8.478;2022-08-05T10:53:37;2.33;;;2.10;;
8526;SDS011;4301;48.362;8.478;2022-08-05T10:56:07;3.67;;;2.30;;
8526;SDS011;4301;48.362;8.478;2022-08-05T10:58:36;2.97;;;1.90;;
8526;SDS011;4301;48.362;8.478;2022-08-05T11:01:13;2.67;;;2.05;;
8526;SDS011;4301;48.362;8.478;2022-08-05T11:06:29;2.72;;;2.30;;
8526;SDS011;4301;48.362;8.478;2022-08-05T11:09:10;2.15;;;1.98;;
8526;SDS011;4301;48.362;8.478;2022-08-05T11:11:45;1.90;;;1.85;;
8526;SDS011;4301;48.362;8.478;2022-08-05T11:14:21;3.78;;;1.85;;
8526;SDS011;4301;48.362;8.478;2022-08-05T11:19:55;5.30;;;2.78;;
8526;SDS011;4301;48.362;8.478;2022-08-05T11:22:43;3.75;;;2.53;;
8526;SDS011;4301;48.362;8.478;2022-08-05T11:25:28;2.55;;;2.20;;
8526;SDS011;4301;48.362;8.478;2022-08-05T11:33:51;4.40;;;2.58;;
8526;SDS011;4301;48.362;8.478;2022-08-05T11:36:20;3.17;;;2.40;;
8526;SDS011;4301;48.362;8.478;2022-08-05T11:39:06;3.83;;;1.92;;
8526;SDS011;4301;48.362;8.478;2022-08-05T11:41:34;2.92;;;2.00;;
8526;SDS011;4301;48.362;8.478;2022-08-05T11:44:01;3.05;;;2.30;;
8526;SDS011;4301;48.362;8.478;2022-08-05T11:46:30;2.55;;;2.28;;
8526;SDS011;4301;48.362;8.478;2022-08-05T11:48:59;3.33;;;2.40;;
8526;SDS011;4301;48.362;8.478;2022-08-05T11:51:27;4.47;;;2.50;;
8526;SDS011;4301;48.362;8.478;2022-08-05T11:53:55;6.43;;;2.45;;
8526;SDS011;4301;48.362;8.478;2022-08-05T11:56:24;3.35;;;2.40;;
8526;SDS011;4301;48.362;8.478;2022-08-05T11:58:51;2.75;;;2.28;;
8526;SDS011;4301;48.362;8.478;2022-08-05T12:01:20;2.67;;;2.05;;
8526;SDS011;4301;48.362;8.478;2022-08-05T12:03:48;2.65;;;2.50;;
8526;SDS011;4301;48.362;8.478;2022-08-05T12:06:17;2.72;;;2.53;;
8526;SDS011;4301;48.362;8.478;2022-08-05T12:08:45;2.90;;;2.58;;
8526;SDS011;4301;48.362;8.478;2022-08-05T12:11:15;2.67;;;2.47;;
8526;SDS011;4301;48.362;8.478;2022-08-05T12:13:52;4.13;;;2.40;;
8526;SDS011;4301;48.362;8.478;2022-08-05T12:16:21;3.60;;;2.40;;
8526;SDS011;4301;48.362;8.478;2022-08-05T12:18:48;2.85;;;2.58;;
8526;SDS011;4301;48.362;8.478;2022-08-05T12:21:16;3.03;;;2.55;;
8526;SDS011;4301;48.362;8.478;2022-08-05T12:23:56;3.55;;;2.50;;
8526;SDS011;4301;48.362;8.478;2022-08-05T12:26:29;2.40;;;2.30;;
8526;SDS011;4301;48.362;8.478;2022-08-05T12:28:57;2.78;;;2.35;;
8526;SDS011;4301;48.362;8.478;2022-08-05T12:31:24;3.55;;;2.47;;
8526;SDS011;4301;48.362;8.478;2022-08-05T12:33:51;2.90;;;2.70;;
8526;SDS011;4301;48.362;8.478;2022-08-05T12:36:21;2.80;;;2.47;;
8526;SDS011;4301;48.362;8.478;2022-08-05T12:38:48;2.83;;;2.50;;
8526;SDS011;4301;48.362;8.478;2022-08-05T12:41:15;2.70;;;2.50;;
8526;SDS011;4301;48.362;8.478;2022-08-05T12:43:49;4.05;;;2.80;;
8526;SDS011;4301;48.362;8.478;2022-08-05T12:46:23;5.90;;;2.63;;
8526;SDS011;4301;48.362;8.478;2022-08-05T12:49:01;5.47;;;2.92;;
8526;SDS011;4301;48.362;8.478;2022-08-05T12:51:42;3.92;;;2.70;;
8526;SDS011;4301;48.362;8.478;2022-08-05T12:54:10;6.15;;;2.90;;
8526;SDS011;4301;48.362;8.478;2022-08-05T12:56:46;2.70;;;2.47;;
8526;SDS011;4301;48.362;8.478;2022-08-05T12:59:14;9.30;;;3.03;;
8526;SDS011;4301;48.362;8.478;2022-08-05T13:01:52;2.92;;;2.72;;
8526;SDS011;4301;48.362;8.478;2022-08-05T13:04:22;2.97;;;2.78;;
8526;SDS011;4301;48.362;8.478;2022-08-05T13:06:52;3.25;;;2.10;;
8526;SDS011;4301;48.362;8.478;2022-08-05T13:09:21;4.40;;;2.88;;
8526;SDS011;4301;48.362;8.478;2022-08-05T13:11:48;4.45;;;3.05;;
8526;SDS011;4301;48.362;8.478;2022-08-05T13:14:19;3.72;;;3.42;;
8526;SDS011;4301;48.362;8.478;2022-08-05T13:16:49;3.17;;;2.90;;
8526;SDS011;4301;48.362;8.478;2022-08-05T13:19:20;3.40;;;3.20;;
8526;SDS011;4301;48.362;8.478;2022-08-05T13:21:48;3.97;;;3.13;;
8526;SDS011;4301;48.362;8.478;2022-08-05T13:24:15;4.10;;;2.97;;
8526;SDS011;4301;48.362;8.478;2022-08-05T13:26:43;3.83;;;2.95;;
8526;SDS011;4301;48.362;8.478;2022-08-05T13:29:11;5.85;;;3.10;;
8526;SDS011;4301;48.362;8.478;2022-08-05T13:31:39;4.53;;;3.00;;
8526;SDS011;4301;48.362;8.478;2022-08-05T13:34:08;3.10;;;2.90;;
8526;SDS011;4301;48.362;8.478;2022-08-05T13:36:36;3.30;;;3.00;;
8526;SDS011;4301;48.362;8.478;2022-08-05T13:39:04;3.17;;;2.72;;
8526;SDS011;4301;48.362;8.478;2022-08-05T13:41:32;5.22;;;2.88;;
8526;SDS011;4301;48.362;8.478;2022-08-05T13:44:00;6.20;;;2.80;;
8526;SDS011;4301;48.362;8.478;2022-08-05T13:46:27;5.60;;;3.10;;
8526;SDS011;4301;48.362;8.478;2022-08-05T13:48:55;3.10;;;2.80;;
8526;SDS011;4301;48.362;8.478;2022-08-05T13:51:27;2.78;;;2.63;;
8526;SDS011;4301;48.362;8.478;2022-08-05T13:53:55;3.83;;;3.03;;
8526;SDS011;4301;48.362;8.478;2022-08-05T13:56:23;3.17;;;2.97;;
8526;SDS011;4301;48.362;8.478;2022-08-05T13:58:50;3.67;;;3.17;;
8526;SDS011;4301;48.362;8.478;2022-08-05T14:01:17;2.90;;;2.72;;
8526;SDS011;4301;48.362;8.478;2022-08-05T14:03:44;3.83;;;2.83;;
8526;SDS011;4301;48.362;8.478;2022-08-05T14:06:34;2.92;;;2.58;;
8526;SDS011;4301;48.362;8.478;2022-08-05T14:09:01;2.78;;;2.58;;
8526;SDS011;4301;48.362;8.478;2022-08-05T14:11:28;3.95;;;2.80;;
8526;SDS011;4301;48.362;8.478;2022-08-05T14:13:55;3.72;;;2.38;;
8526;SDS011;4301;48.362;8.478;2022-08-05T14:16:22;3.05;;;2.75;;
8526;SDS011;4301;48.362;8.478;2022-08-05T14:18:49;2.90;;;2.70;;
8526;SDS011;4301;48.362;8.478;2022-08-05T14:21:16;4.07;;;3.00;;
8526;SDS011;4301;48.362;8.478;2022-08-05T14:23:45;3.00;;;2.80;;
8526;SDS011;4301;48.362;8.478;2022-08-05T14:26:12;2.95;;;2.75;;
8526;SDS011;4301;48.362;8.478;2022-08-05T14:28:39;3.22;;;3.03;;
8526;SDS011;4301;48.362;8.478;2022-08-05T14:31:06;3.13;;;2.90;;
8526;SDS011;4301;48.362;8.478;2022-08-05T14:33:33;4.93;;;3.25;;
8526;SDS011;4301;48.362;8.478;2022-08-05T14:36:00;3.22;;;2.72;;
8526;SDS011;4301;48.362;8.478;2022-08-05T14:38:28;3.92;;;3.00;;
8526;SDS011;4301;48.362;8.478;2022-08-05T14:40:56;4.90;;;3.00;;
8526;SDS011;4301;48.362;8.478;2022-08-05T14:43:23;3.25;;;3.05;;
8526;SDS011;4301;48.362;8.478;2022-08-05T14:45:50;3.65;;;3.10;;
8526;SDS011;4301;48.362;8.478;2022-08-05T14:48:17;3.47;;;3.17;;
8526;SDS011;4301;48.362;8.478;2022-08-05T14:50:44;3.38;;;3.08;;
8526;SDS011;4301;48.362;8.478;2022-08-05T14:53:11;5.90;;;3.25;;
8526;SDS011;4301;48.362;8.478;2022-08-05T14:55:38;3.58;;;3.20;;
8526;SDS011;4301;48.362;8.478;2022-08-05T14:58:08;5.43;;;3.30;;
8526;SDS011;4301;48.362;8.478;2022-08-05T15:00:35;4.97;;;2.90;;
8526;SDS011;4301;48.362;8.478;2022-08-05T15:03:03;3.65;;;3.05;;
8526;SDS011;4301;48.362;8.478;2022-08-05T15:05:31;5.35;;;3.28;;
8526;SDS011;4301;48.362;8.478;2022-08-05T15:07:58;3.30;;;3.10;;
8526;SDS011;4301;48.362;8.478;2022-08-05T15:10:26;3.20;;;2.83;;
8526;SDS011;4301;48.362;8.478;2022-08-05T15:12:53;4.28;;;3.00;;
8526;SDS011;4301;48.362;8.478;2022-08-05T15:15:21;3.63;;;3.00;;
8526;SDS011;4301;48.362;8.478;2022-08-05T15:17:48;3.50;;;3.20;;
8526;SDS011;4301;48.362;8.478;2022-08-05T15:20:16;5.30;;;2.90;;
8526;SDS011;4301;48.362;8.478;2022-08-05T15:22:43;3.20;;;2.90;;
8526;SDS011;4301;48.362;8.478;2022-08-05T15:25:10;3.05;;;2.83;;
8526;SDS011;4301;48.362;8.478;2022-08-05T15:27:37;10.85;;;3.10;;
8526;SDS011;4301;48.362;8.478;2022-08-05T15:30:04;6.97;;;3.00;;
8526;SDS011;4301;48.362;8.478;2022-08-05T15:32:33;7.30;;;2.75;;
8526;SDS011;4301;48.362;8.478;2022-08-05T15:35:00;3.60;;;2.97;;
8526;SDS011;4301;48.362;8.478;2022-08-05T15:37:27;5.55;;;2.92;;
8526;SDS011;4301;48.362;8.478;2022-08-05T15:39:55;3.78;;;2.72;;
8526;SDS011;4301;48.362;8.478;2022-08-05T15:42:22;4.43;;;3.03;;